sensor_id;sensor_type;location;lat;lon;timestamp;temperature;humidity
48454;DHT22;34261;55.678;12.464;2023-02-03T00:01:26;4.50;99.90
48454;DHT22;34261;55.678;12.464;2023-02-03T00:03:51;4.60;99.90
48454;DHT22;34261;55.678;12.464;2023-02-03T00:06:17;4.60;99.90
48454;DHT22;34261;55.678;12.464;2023-02-03T00:08:43;4.50;99.90
48454;DHT22;34261;55.678;12.464;2023-02-03T00:11:10;4.40;99.90
48454;DHT22;34261;55.678;12.464;2023-02-03T00:13:36;4.40;99.90
48454;DHT22;34261;55.678;12.464;2023-02-03T00:16:01;4.30;99.90
48454;DHT22;34261;55.678;12.464;2023-02-03T00:18:31;4.30;99.90
48454;DHT22;34261;55.678;12.464;2023-02-03T00:20:57;4.30;99.90
48454;DHT22;34261;55.678;12.464;2023-02-03T00:23:22;4.20;99.90
48454;DHT22;34261;55.678;12.464;2023-02-03T00:25:50;4.20;99.90
48454;DHT22;34261;55.678;12.464;2023-02-03T00:28:15;4.10;99.90
48454;DHT22;34261;55.678;12.464;2023-02-03T00:30:41;4.10;99.90
48454;DHT22;34261;55.678;12.464;2023-02-03T00:33:06;3.90;99.90
48454;DHT22;34261;55.678;12.464;2023-02-03T00:35:32;3.90;99.90
48454;DHT22;34261;55.678;12.464;2023-02-03T00:37:57;3.80;99.90
48454;DHT22;34261;55.678;12.464;2023-02-03T00:40:24;3.70;99.90
48454;DHT22;34261;55.678;12.464;2023-02-03T00:42:50;3.70;99.90
48454;DHT22;34261;55.678;12.464;2023-02-03T00:45:15;3.70;99.90
48454;DHT22;34261;55.678;12.464;2023-02-03T00:47:41;3.70;99.90
48454;DHT22;34261;55.678;12.464;2023-02-03T00:50:07;3.70;99.90
48454;DHT22;34261;55.678;12.464;2023-02-03T00:52:32;3.70;99.90
48454;DHT22;34261;55.678;12.464;2023-02-03T00:54:58;3.70;99.90
48454;DHT22;34261;55.678;12.464;2023-02-03T00:57:24;3.60;99.90
48454;DHT22;34261;55.678;12.464;2023-02-03T00:59:50;3.60;99.90
48454;DHT22;34261;55.678;12.464;2023-02-03T01:02:16;3.50;99.90
48454;DHT22;34261;55.678;12.464;2023-02-03T01:04:42;3.50;99.90
48454;DHT22;34261;55.678;12.464;2023-02-03T01:07:08;3.40;99.90
48454;DHT22;34261;55.678;12.464;2023-02-03T01:09:34;3.40;99.90
48454;DHT22;34261;55.678;12.464;2023-02-03T01:12:00;3.40;99.90
48454;DHT22;34261;55.678;12.464;2023-02-03T01:14:27;3.40;99.90
48454;DHT22;34261;55.678;12.464;2023-02-03T01:16:52;3.50;99.90
48454;DHT22;34261;55.678;12.464;2023-02-03T01:19:18;3.50;99.90
48454;DHT22;34261;55.678;12.464;2023-02-03T01:21:44;3.50;99.90
48454;DHT22;34261;55.678;12.464;2023-02-03T01:24:09;3.50;99.90
48454;DHT22;34261;55.678;12.464;2023-02-03T01:26:35;3.50;99.90
48454;DHT22;34261;55.678;12.464;2023-02-03T01:29:01;3.50;99.90
48454;DHT22;34261;55.678;12.464;2023-02-03T01:31:28;3.60;99.90
48454;DHT22;34261;55.678;12.464;2023-02-03T01:33:54;3.60;99.90
48454;DHT22;34261;55.678;12.464;2023-02-03T01:36:21;3.60;99.90
48454;DHT22;34261;55.678;12.464;2023-02-03T01:38:47;3.70;99.90
48454;DHT22;34261;55.678;12.464;2023-02-03T01:41:14;3.70;99.90
48454;DHT22;34261;55.678;12.464;2023-02-03T01:43:40;3.70;99.90
48454;DHT22;34261;55.678;12.464;2023-02-03T01:46:27;3.70;99.90
48454;DHT22;34261;55.678;12.464;2023-02-03T01:49:04;3.70;99.90
48454;DHT22;34261;55.678;12.464;2023-02-03T01:51:31;3.60;99.90
48454;DHT22;34261;55.678;12.464;2023-02-03T01:53:58;3.60;99.90
48454;DHT22;34261;55.678;12.464;2023-02-03T01:56:24;3.60;99.90
48454;DHT22;34261;55.678;12.464;2023-02-03T01:58:52;3.60;99.90
48454;DHT22;34261;55.678;12.464;2023-02-03T02:01:18;3.50;99.90
48454;DHT22;34261;55.678;12.464;2023-02-03T02:03:45;3.50;99.90
48454;DHT22;34261;55.678;12.464;2023-02-03T02:06:13;3.50;99.90
48454;DHT22;34261;55.678;12.464;2023-02-03T02:08:39;3.50;99.90
48454;DHT22;34261;55.678;12.464;2023-02-03T02:11:05;3.50;99.90
48454;DHT22;34261;55.678;12.464;2023-02-03T02:13:32;3.50;99.90
48454;DHT22;34261;55.678;12.464;2023-02-03T02:16:05;3.50;99.90
48454;DHT22;34261;55.678;12.464;2023-02-03T02:18:35;3.50;99.90
48454;DHT22;34261;55.678;12.464;2023-02-03T02:27:15;3.50;99.90
48454;DHT22;34261;55.678;12.464;2023-02-03T02:31:46;3.50;99.90
48454;DHT22;34261;55.678;12.464;2023-02-03T02:34:18;3.40;99.90
48454;DHT22;34261;55.678;12.464;2023-02-03T02:36:57;3.40;99.90
48454;DHT22;34261;55.678;12.464;2023-02-03T02:39:32;3.40;99.90
48454;DHT22;34261;55.678;12.464;2023-02-03T02:42:00;3.40;99.90
48454;DHT22;34261;55.678;12.464;2023-02-03T02:44:34;3.40;99.90
48454;DHT22;34261;55.678;12.464;2023-02-03T02:47:24;3.30;99.90
48454;DHT22;34261;55.678;12.464;2023-02-03T02:49:51;3.30;99.90
48454;DHT22;34261;55.678;12.464;2023-02-03T02:52:19;3.20;99.90
48454;DHT22;34261;55.678;12.464;2023-02-03T02:54:48;3.20;99.90
48454;DHT22;34261;55.678;12.464;2023-02-03T02:57:15;3.20;99.90
48454;DHT22;34261;55.678;12.464;2023-02-03T02:59:44;3.20;99.90
48454;DHT22;34261;55.678;12.464;2023-02-03T03:02:09;3.10;99.90
48454;DHT22;34261;55.678;12.464;2023-02-03T03:04:36;3.10;99.90
48454;DHT22;34261;55.678;12.464;2023-02-03T03:07:03;3.10;99.90
48454;DHT22;34261;55.678;12.464;2023-02-03T03:09:32;3.10;99.90
48454;DHT22;34261;55.678;12.464;2023-02-03T03:12:03;3.10;99.90
48454;DHT22;34261;55.678;12.464;2023-02-03T03:14:31;3.00;99.90
48454;DHT22;34261;55.678;12.464;2023-02-03T03:17:04;3.00;99.90
48454;DHT22;34261;55.678;12.464;2023-02-03T03:19:33;3.00;99.90
48454;DHT22;34261;55.678;12.464;2023-02-03T03:22:01;3.00;99.90
48454;DHT22;34261;55.678;12.464;2023-02-03T03:24:30;3.10;99.90
48454;DHT22;34261;55.678;12.464;2023-02-03T03:27:17;3.00;99.90
48454;DHT22;34261;55.678;12.464;2023-02-03T03:29:49;3.00;99.90
48454;DHT22;34261;55.678;12.464;2023-02-03T03:32:17;2.90;99.90
48454;DHT22;34261;55.678;12.464;2023-02-03T03:34:48;2.90;99.90
48454;DHT22;34261;55.678;12.464;2023-02-03T03:37:28;2.90;99.90
48454;DHT22;34261;55.678;12.464;2023-02-03T03:39:57;2.90;99.90
48454;DHT22;34261;55.678;12.464;2023-02-03T03:44:53;2.90;99.90
48454;DHT22;34261;55.678;12.464;2023-02-03T03:55:08;2.90;99.90
48454;DHT22;34261;55.678;12.464;2023-02-03T03:57:36;2.80;99.90
48454;DHT22;34261;55.678;12.464;2023-02-03T04:00:04;2.80;99.90
48454;DHT22;34261;55.678;12.464;2023-02-03T04:02:30;2.90;99.90
48454;DHT22;34261;55.678;12.464;2023-02-03T04:04:58;2.90;99.90
48454;DHT22;34261;55.678;12.464;2023-02-03T04:07:24;2.90;99.90
48454;DHT22;34261;55.678;12.464;2023-02-03T04:10:03;2.90;99.90
48454;DHT22;34261;55.678;12.464;2023-02-03T04:12:31;3.00;99.90
48454;DHT22;34261;55.678;12.464;2023-02-03T04:14:57;3.00;99.90
48454;DHT22;34261;55.678;12.464;2023-02-03T04:17:22;3.00;99.90
48454;DHT22;34261;55.678;12.464;2023-02-03T04:19:48;3.10;99.90
48454;DHT22;34261;55.678;12.464;2023-02-03T04:22:13;3.10;99.90
48454;DHT22;34261;55.678;12.464;2023-02-03T04:24:39;3.20;99.90
48454;DHT22;34261;55.678;12.464;2023-02-03T04:27:04;3.20;99.90
48454;DHT22;34261;55.678;12.464;2023-02-03T04:29:30;3.30;99.90
48454;DHT22;34261;55.678;12.464;2023-02-03T04:31:56;3.40;99.90
48454;DHT22;34261;55.678;12.464;2023-02-03T04:34:21;3.50;99.90
48454;DHT22;34261;55.678;12.464;2023-02-03T04:36:47;3.50;99.90
48454;DHT22;34261;55.678;12.464;2023-02-03T04:39:12;3.60;99.90
48454;DHT22;34261;55.678;12.464;2023-02-03T04:41:38;3.60;99.90
48454;DHT22;34261;55.678;12.464;2023-02-03T04:44:04;3.70;99.90
48454;DHT22;34261;55.678;12.464;2023-02-03T04:46:29;3.70;99.90
48454;DHT22;34261;55.678;12.464;2023-02-03T04:48:55;3.80;99.90
48454;DHT22;34261;55.678;12.464;2023-02-03T04:51:20;3.80;99.90
48454;DHT22;34261;55.678;12.464;2023-02-03T04:53:46;3.90;99.90
48454;DHT22;34261;55.678;12.464;2023-02-03T04:56:11;3.90;99.90
48454;DHT22;34261;55.678;12.464;2023-02-03T04:58:37;4.00;99.90
48454;DHT22;34261;55.678;12.464;2023-02-03T05:01:06;4.00;99.90
48454;DHT22;34261;55.678;12.464;2023-02-03T05:03:32;4.10;99.90
48454;DHT22;34261;55.678;12.464;2023-02-03T05:05:58;4.10;99.90
48454;DHT22;34261;55.678;12.464;2023-02-03T05:08:24;4.20;99.90
48454;DHT22;34261;55.678;12.464;2023-02-03T05:10:49;4.20;99.90
48454;DHT22;34261;55.678;12.464;2023-02-03T05:13:15;4.30;99.90
48454;DHT22;34261;55.678;12.464;2023-02-03T05:15:40;4.40;99.90
48454;DHT22;34261;55.678;12.464;2023-02-03T05:18:06;4.40;99.90
48454;DHT22;34261;55.678;12.464;2023-02-03T05:20:31;4.40;99.90
48454;DHT22;34261;55.678;12.464;2023-02-03T05:22:57;4.50;99.90
48454;DHT22;34261;55.678;12.464;2023-02-03T05:25:22;4.50;99.90
48454;DHT22;34261;55.678;12.464;2023-02-03T05:27:48;4.50;99.90
48454;DHT22;34261;55.678;12.464;2023-02-03T05:30:14;4.60;99.90
48454;DHT22;34261;55.678;12.464;2023-02-03T05:32:39;4.70;99.90
48454;DHT22;34261;55.678;12.464;2023-02-03T05:35:05;4.70;99.90
48454;DHT22;34261;55.678;12.464;2023-02-03T05:37:30;4.80;99.90
48454;DHT22;34261;55.678;12.464;2023-02-03T05:39:56;4.90;99.90
48454;DHT22;34261;55.678;12.464;2023-02-03T05:42:45;4.90;99.90
48454;DHT22;34261;55.678;12.464;2023-02-03T05:45:10;4.90;99.90
48454;DHT22;34261;55.678;12.464;2023-02-03T05:47:36;5.00;99.90
48454;DHT22;34261;55.678;12.464;2023-02-03T05:50:01;5.00;99.90
48454;DHT22;34261;55.678;12.464;2023-02-03T05:52:27;5.00;99.90
48454;DHT22;34261;55.678;12.464;2023-02-03T05:54:53;5.10;99.90
48454;DHT22;34261;55.678;12.464;2023-02-03T05:57:18;5.10;99.90
48454;DHT22;34261;55.678;12.464;2023-02-03T05:59:44;5.20;99.90
48454;DHT22;34261;55.678;12.464;2023-02-03T06:02:10;5.30;99.90
48454;DHT22;34261;55.678;12.464;2023-02-03T06:04:35;5.30;99.90
48454;DHT22;34261;55.678;12.464;2023-02-03T06:07:01;5.40;99.90
48454;DHT22;34261;55.678;12.464;2023-02-03T06:09:26;5.30;99.90
48454;DHT22;34261;55.678;12.464;2023-02-03T06:11:52;5.40;99.90
48454;DHT22;34261;55.678;12.464;2023-02-03T06:14:17;5.40;99.90
48454;DHT22;34261;55.678;12.464;2023-02-03T06:16:43;5.50;99.90
48454;DHT22;34261;55.678;12.464;2023-02-03T06:19:09;5.50;99.90
48454;DHT22;34261;55.678;12.464;2023-02-03T06:21:34;5.50;99.90
48454;DHT22;34261;55.678;12.464;2023-02-03T06:24:00;5.60;99.90
48454;DHT22;34261;55.678;12.464;2023-02-03T06:26:25;5.60;99.90
48454;DHT22;34261;55.678;12.464;2023-02-03T06:28:51;5.70;99.90
48454;DHT22;34261;55.678;12.464;2023-02-03T06:31:16;5.80;99.90
48454;DHT22;34261;55.678;12.464;2023-02-03T06:33:42;5.80;99.90
48454;DHT22;34261;55.678;12.464;2023-02-03T06:36:07;5.90;99.90
48454;DHT22;34261;55.678;12.464;2023-02-03T06:38:33;6.00;99.90
48454;DHT22;34261;55.678;12.464;2023-02-03T06:40:59;6.20;99.90
48454;DHT22;34261;55.678;12.464;2023-02-03T06:43:25;6.30;99.90
48454;DHT22;34261;55.678;12.464;2023-02-03T06:45:51;6.40;99.90
48454;DHT22;34261;55.678;12.464;2023-02-03T06:48:17;6.50;99.90
48454;DHT22;34261;55.678;12.464;2023-02-03T06:50:43;6.60;99.90
48454;DHT22;34261;55.678;12.464;2023-02-03T06:53:09;6.80;99.90
48454;DHT22;34261;55.678;12.464;2023-02-03T06:55:35;6.80;99.90
48454;DHT22;34261;55.678;12.464;2023-02-03T06:58:01;7.00;99.90
48454;DHT22;34261;55.678;12.464;2023-02-03T07:00:28;7.00;99.90
48454;DHT22;34261;55.678;12.464;2023-02-03T07:02:55;7.10;99.90
48454;DHT22;34261;55.678;12.464;2023-02-03T07:05:21;7.20;99.90
48454;DHT22;34261;55.678;12.464;2023-02-03T07:07:47;7.20;99.90
48454;DHT22;34261;55.678;12.464;2023-02-03T07:10:13;7.30;99.90
48454;DHT22;34261;55.678;12.464;2023-02-03T07:12:39;7.40;99.90
48454;DHT22;34261;55.678;12.464;2023-02-03T07:15:05;7.40;99.90
48454;DHT22;34261;55.678;12.464;2023-02-03T07:17:31;7.40;99.90
48454;DHT22;34261;55.678;12.464;2023-02-03T07:19:56;7.50;99.90
48454;DHT22;34261;55.678;12.464;2023-02-03T07:22:22;7.60;99.90
48454;DHT22;34261;55.678;12.464;2023-02-03T07:24:47;7.60;99.90
48454;DHT22;34261;55.678;12.464;2023-02-03T07:27:13;7.70;99.90
48454;DHT22;34261;55.678;12.464;2023-02-03T07:29:39;7.70;99.90
48454;DHT22;34261;55.678;12.464;2023-02-03T07:32:04;7.70;99.90
48454;DHT22;34261;55.678;12.464;2023-02-03T07:34:31;7.80;99.90
48454;DHT22;34261;55.678;12.464;2023-02-03T07:36:57;7.80;99.90
48454;DHT22;34261;55.678;12.464;2023-02-03T07:39:26;7.80;99.90
48454;DHT22;34261;55.678;12.464;2023-02-03T07:41:52;7.80;99.90
48454;DHT22;34261;55.678;12.464;2023-02-03T07:44:20;7.80;99.90
48454;DHT22;34261;55.678;12.464;2023-02-03T07:46:48;7.90;99.90
48454;DHT22;34261;55.678;12.464;2023-02-03T07:49:14;7.80;99.90
48454;DHT22;34261;55.678;12.464;2023-02-03T07:51:40;7.90;99.90
48454;DHT22;34261;55.678;12.464;2023-02-03T07:54:07;7.90;99.90
48454;DHT22;34261;55.678;12.464;2023-02-03T07:56:36;7.90;99.90
48454;DHT22;34261;55.678;12.464;2023-02-03T07:59:05;7.90;99.90
48454;DHT22;34261;55.678;12.464;2023-02-03T08:01:40;7.90;99.90
48454;DHT22;34261;55.678;12.464;2023-02-03T08:04:17;7.80;99.90
48454;DHT22;34261;55.678;12.464;2023-02-03T08:06:43;7.90;99.90
48454;DHT22;34261;55.678;12.464;2023-02-03T08:09:11;7.80;99.90
48454;DHT22;34261;55.678;12.464;2023-02-03T08:11:38;7.80;99.90
48454;DHT22;34261;55.678;12.464;2023-02-03T08:14:10;7.80;99.90
48454;DHT22;34261;55.678;12.464;2023-02-03T08:16:56;7.80;99.90
48454;DHT22;34261;55.678;12.464;2023-02-03T08:19:22;7.90;99.90
48454;DHT22;34261;55.678;12.464;2023-02-03T08:21:53;7.80;99.90
48454;DHT22;34261;55.678;12.464;2023-02-03T08:26:54;7.80;99.90
48454;DHT22;34261;55.678;12.464;2023-02-03T08:29:24;7.80;99.90
48454;DHT22;34261;55.678;12.464;2023-02-03T08:31:49;7.80;99.90
48454;DHT22;34261;55.678;12.464;2023-02-03T08:34:15;7.90;99.90
48454;DHT22;34261;55.678;12.464;2023-02-03T08:42:47;7.90;99.90
48454;DHT22;34261;55.678;12.464;2023-02-03T08:47:43;8.00;99.90
48454;DHT22;34261;55.678;12.464;2023-02-03T08:50:09;7.90;99.90
48454;DHT22;34261;55.678;12.464;2023-02-03T08:52:34;7.90;99.90
48454;DHT22;34261;55.678;12.464;2023-02-03T08:55:00;7.90;99.90
48454;DHT22;34261;55.678;12.464;2023-02-03T09:00:02;7.90;99.90
48454;DHT22;34261;55.678;12.464;2023-02-03T09:02:27;7.90;99.90
48454;DHT22;34261;55.678;12.464;2023-02-03T09:04:53;7.90;99.90
48454;DHT22;34261;55.678;12.464;2023-02-03T09:07:20;7.80;99.90
48454;DHT22;34261;55.678;12.464;2023-02-03T09:09:46;7.80;99.90
48454;DHT22;34261;55.678;12.464;2023-02-03T09:12:11;7.90;99.90
48454;DHT22;34261;55.678;12.464;2023-02-03T09:14:37;7.80;99.90
48454;DHT22;34261;55.678;12.464;2023-02-03T09:20:08;7.80;99.90
48454;DHT22;34261;55.678;12.464;2023-02-03T09:22:37;7.80;99.90
48454;DHT22;34261;55.678;12.464;2023-02-03T09:25:05;7.70;99.90
48454;DHT22;34261;55.678;12.464;2023-02-03T09:28:02;7.80;99.90
48454;DHT22;34261;55.678;12.464;2023-02-03T09:30:58;7.70;99.90
48454;DHT22;34261;55.678;12.464;2023-02-03T09:33:58;7.70;99.90
48454;DHT22;34261;55.678;12.464;2023-02-03T09:36:51;7.70;99.90
48454;DHT22;34261;55.678;12.464;2023-02-03T09:52:44;7.80;99.90
48454;DHT22;34261;55.678;12.464;2023-02-03T09:58:05;7.80;99.90
48454;DHT22;34261;55.678;12.464;2023-02-03T10:00:40;7.90;99.90
48454;DHT22;34261;55.678;12.464;2023-02-03T10:13:51;8.10;99.90
48454;DHT22;34261;55.678;12.464;2023-02-03T10:29:23;8.20;99.90
48454;DHT22;34261;55.678;12.464;2023-02-03T10:42:11;7.90;99.90
48454;DHT22;34261;55.678;12.464;2023-02-03T10:53:25;7.90;99.90
48454;DHT22;34261;55.678;12.464;2023-02-03T10:56:00;7.80;99.90
48454;DHT22;34261;55.678;12.464;2023-02-03T11:03:43;7.80;99.90
48454;DHT22;34261;55.678;12.464;2023-02-03T11:08:35;7.80;99.90
48454;DHT22;34261;55.678;12.464;2023-02-03T11:11:05;7.80;99.90
48454;DHT22;34261;55.678;12.464;2023-02-03T11:29:04;7.60;99.90
48454;DHT22;34261;55.678;12.464;2023-02-03T11:31:51;7.50;99.90
48454;DHT22;34261;55.678;12.464;2023-02-03T12:57:53;5.70;99.90
48454;DHT22;34261;55.678;12.464;2023-02-03T13:02:58;5.60;99.90
48454;DHT22;34261;55.678;12.464;2023-02-03T13:10:47;5.70;99.90
48454;DHT22;34261;55.678;12.464;2023-02-03T13:13:15;5.60;99.90
48454;DHT22;34261;55.678;12.464;2023-02-03T13:15:43;5.60;99.90
